Time;durP1;ratioP1;P1;durP2;ratioP2;P2;SDS_P1;SDS_P2;PMS_P1;PMS_P2;Temp;Humidity;BMP_temperature;BMP_pressure;BME280_temperature;BME280_humidity;BME280_pressure;Samples;Min_cycle;Max_cycle;Signal;HPM_P1;HPM_P2
2022/04/11 00:01:40;363377.00;1.21;626.85;0.00;0.00;0.62;;;;;12.80;1.00;;;;;;2256102;61;1037;-89
2022/04/11 00:06:35;117981408.00;393.27;66523492.00;0.00;0.00;0.62;;;;;12.90;1.00;;;;;;2258712;61;1307;-90
2022/04/11 00:09:02;40013.00;0.13;69.91;0.00;0.00;0.62;;;;;12.40;1.00;;;;;;2256229;61;1929;-90
2022/04/11 00:11:29;25222.00;0.08;44.31;0.00;0.00;0.62;;;;;12.60;1.00;;;;;;2256375;61;934;-90
2022/04/11 00:16:25;105494.00;0.35;183.05;0.00;0.00;0.62;;;;;12.20;1.00;;;;;;2257718;61;1413;-89
2022/04/11 00:18:53;52920.00;0.18;92.24;0.00;0.00;0.62;;;;;12.00;1.00;;;;;;2256220;61;1479;-87
2022/04/11 00:21:20;163968.00;0.55;283.88;0.00;0.00;0.62;;;;;11.90;1.00;;;;;;2260788;56;3786;-87
2022/04/11 00:23:47;41648.00;0.14;72.74;0.00;0.00;0.62;;;;;11.90;1.00;;;;;;2263893;41;3634;-86
2022/04/11 00:26:14;57943.00;0.19;100.92;0.00;0.00;0.62;;;;;12.00;1.00;;;;;;2256277;61;1120;-87
2022/04/11 00:28:41;97801.00;0.33;169.78;0.00;0.00;0.62;;;;;12.00;1.00;;;;;;2256090;61;1902;-88
2022/04/11 00:31:08;5137.00;0.02;9.52;0.00;0.00;0.62;;;;;11.80;1.00;;;;;;2256192;61;908;-88
2022/04/11 00:33:35;46918.00;0.16;81.86;0.00;0.00;0.62;;;;;11.80;1.00;;;;;;2256213;61;1097;-89
2022/04/11 00:36:03;93326.00;0.31;162.05;0.00;0.00;0.62;;;;;11.70;1.00;;;;;;2256260;61;1060;-87
2022/04/11 00:43:31;118630.00;0.40;205.72;0.00;0.00;0.62;;;;;11.90;1.00;;;;;;2258049;61;1394;-90
2022/04/11 00:45:58;393602.00;1.31;678.81;15537.00;0.05;27.54;;;;;11.70;1.00;;;;;;2256143;61;963;-89
2022/04/11 00:48:25;593301.00;1.98;1022.65;0.00;0.00;0.62;;;;;11.60;1.00;;;;;;2256066;61;1916;-89
2022/04/11 00:53:26;892793.00;2.98;1543.47;15743.00;0.05;27.90;;;;;11.70;1.00;;;;;;2258822;61;1248;-88
2022/04/11 00:55:55;858844.00;2.86;1483.95;104874.00;0.35;181.98;;;;;11.70;1.00;;;;;;2255821;61;1140;-87
2022/04/11 00:58:22;619313.00;2.06;1067.58;0.00;0.00;0.62;;;;;12.00;1.00;;;;;;2256094;61;1296;-89
2022/04/11 01:00:50;618162.00;2.06;1065.59;54875.00;0.18;95.62;;;;;12.10;1.00;;;;;;2256165;61;1534;-89
2022/04/11 01:03:17;606918.00;2.02;1046.17;53895.00;0.18;93.92;;;;;12.10;1.00;;;;;;2256027;61;1614;-88
2022/04/11 01:05:44;762655.00;2.54;1316.07;24061.00;0.08;42.30;;;;;11.90;1.00;;;;;;2257672;56;4193;-88
2022/04/11 01:10:42;434428.00;1.45;749.00;7289.00;0.02;13.25;;;;;11.30;1.00;;;;;;2257624;61;1408;-87
2022/04/11 01:13:09;408784.00;1.36;704.91;7953.00;0.03;14.40;;;;;11.10;1.00;;;;;;2256156;61;967;-89
2022/04/11 01:15:36;628525.00;2.10;1083.50;14047.00;0.05;24.96;;;;;11.20;1.00;;;;;;2256121;61;1053;-89
2022/04/11 01:18:02;494800.00;1.65;852.87;47592.00;0.16;83.02;;;;;11.60;1.00;;;;;;2255911;61;1390;-87
2022/04/11 01:20:29;606277.00;2.02;1045.06;34201.00;0.11;59.85;;;;;11.20;1.00;;;;;;2256034;61;1035;-88
2022/04/11 01:22:58;856065.00;2.85;1479.08;57159.00;0.19;99.57;;;;;11.40;1.00;;;;;;2255983;61;1064;-87
2022/04/11 01:30:23;491352.00;1.64;846.94;16226.00;0.05;28.73;;;;;12.10;1.00;;;;;;2256804;61;1383;-88
2022/04/11 01:32:50;551234.00;1.84;950.09;54950.00;0.18;95.75;;;;;12.20;1.00;;;;;;2256160;61;1056;-88
2022/04/11 01:35:22;916910.00;3.06;1585.84;62646.00;0.21;109.05;;;;;12.10;1.00;;;;;;2256050;61;1594;-87
2022/04/11 01:37:49;448192.00;1.49;772.67;9246.00;0.03;16.64;;;;;11.80;1.00;;;;;;2257805;56;3845;-88
2022/04/11 01:40:17;590695.00;1.97;1018.16;29666.00;0.10;52.00;;;;;11.90;1.00;;;;;;2254908;61;1666;-88
2022/04/11 01:42:45;543847.00;1.81;937.35;18395.00;0.06;32.49;;;;;12.00;1.00;;;;;;2256676;61;1046;-88
2022/04/11 01:45:12;453285.00;1.51;781.43;12672.00;0.04;22.58;;;;;11.60;1.00;;;;;;2256795;61;1273;-88
2022/04/11 01:47:40;509915.00;1.70;878.90;54263.00;0.18;94.56;;;;;11.60;1.00;;;;;;2259235;40;3582;-86
2022/04/11 01:50:08;347949.00;1.16;600.34;0.00;0.00;0.62;;;;;11.70;1.00;;;;;;2257494;61;815;-89
2022/04/11 01:52:35;437116.00;1.46;753.62;25648.00;0.09;45.05;;;;;11.30;1.00;;;;;;2256811;61;1080;-88
2022/04/11 01:55:03;554904.00;1.85;956.41;11817.00;0.04;21.10;;;;;11.50;1.00;;;;;;2256678;61;1030;-89
2022/04/11 01:57:32;542168.00;1.81;934.46;0.00;0.00;0.62;;;;;11.90;1.00;;;;;;2256687;61;1361;-87
2022/04/11 01:59:59;827228.00;2.76;1428.65;45138.00;0.15;78.78;;;;;12.10;1.00;;;;;;2256826;61;1006;-89
2022/04/11 02:02:26;693032.00;2.31;1195.16;44294.00;0.15;77.32;;;;;11.90;1.00;;;;;;2256688;61;1076;-91
2022/04/11 02:07:22;319184.00;1.06;550.90;0.00;0.00;0.62;;;;;10.40;1.00;;;;;;2258550;61;1399;-88
2022/04/11 02:09:49;283661.00;0.95;489.83;16799.00;0.06;29.73;;;;;9.90;1.00;;;;;;2256529;61;2026;-88
2022/04/11 02:12:16;721456.00;2.40;1244.47;76553.00;0.26;133.08;;;;;10.20;1.00;;;;;;2256561;61;1119;-89
2022/04/11 02:14:44;395850.00;1.32;682.67;10198.00;0.03;18.29;;;;;10.50;1.00;;;;;;2256543;61;989;-89
2022/04/11 02:17:11;250317.00;0.83;432.50;0.00;0.00;0.62;;;;;11.00;1.00;;;;;;2256633;61;1141;-88
2022/04/11 02:19:38;329870.00;1.10;569.26;28028.00;0.09;49.17;;;;;11.00;1.00;;;;;;2256727;61;926;-88
2022/04/11 02:24:37;250781.00;0.84;433.29;18245.00;0.06;32.23;;;;;11.60;1.00;;;;;;2260792;40;3605;-87
2022/04/11 02:27:05;376783.00;1.26;649.90;0.00;0.00;0.62;;;;;11.40;1.00;;;;;;2256605;61;1613;-88
2022/04/11 02:32:08;136967.00;0.46;237.34;0.00;0.00;0.62;;;;;11.60;1.00;;;;;;2258158;61;1345;-87
2022/04/11 02:34:35;128357.00;0.43;222.50;0.00;0.00;0.62;;;;;11.20;1.00;;;;;;2264696;41;3640;-88
2022/04/11 02:39:31;54768.00;0.18;95.43;0.00;0.00;0.62;;;;;11.20;1.00;;;;;;2258220;61;1406;-88
2022/04/11 02:41:58;24685.00;0.08;43.38;0.00;0.00;0.62;;;;;10.90;1.00;;;;;;2256265;61;1029;-88
2022/04/11 02:47:00;99903.00;0.33;173.40;0.00;0.00;0.62;;;;;10.90;1.00;;;;;;2258343;61;1341;-87
2022/04/11 02:51:57;197136.00;0.66;340.99;0.00;0.00;0.62;;;;;10.30;1.00;;;;;;2258011;61;1389;-87
2022/04/11 02:54:24;67652.00;0.23;117.70;0.00;0.00;0.62;;;;;9.90;1.00;;;;;;2256536;61;980;-88
2022/04/11 02:56:51;87123.00;0.29;151.34;0.00;0.00;0.62;;;;;10.40;1.00;;;;;;2256534;61;920;-88
2022/04/11 02:59:18;218990.00;0.73;378.61;19050.00;0.06;33.62;;;;;10.30;1.00;;;;;;2256559;61;1606;-88
2022/04/11 03:04:18;149856.00;0.50;259.56;0.00;0.00;0.62;;;;;10.20;1.00;;;;;;2258345;61;1422;-86
2022/04/11 03:06:45;199926.00;0.67;345.80;0.00;0.00;0.62;;;;;9.60;1.00;;;;;;2256355;61;1163;-87
2022/04/11 03:11:56;70157.00;0.23;122.03;0.00;0.00;0.62;;;;;9.90;1.00;;;;;;2290768;56;3652;-87
2022/04/11 03:14:23;147062.00;0.49;254.74;0.00;0.00;0.62;;;;;10.00;1.00;;;;;;2256308;61;946;-86
2022/04/11 03:19:20;228030.00;0.76;394.16;0.00;0.00;0.62;;;;;9.90;1.00;;;;;;2258166;61;1443;-89
2022/04/11 03:24:16;193026.00;0.64;333.92;0.00;0.00;0.62;;;;;10.00;1.00;;;;;;2257783;61;1381;-89
2022/04/11 03:26:43;46314.00;0.15;80.81;0.00;0.00;0.62;;;;;10.10;1.00;;;;;;2256211;61;1071;-88
2022/04/11 03:44:19;527644.00;1.76;909.43;27297.00;0.09;47.90;;;;;10.00;1.00;;;;;;2258997;61;955;-88
2022/04/11 04:01:51;1094959.00;3.65;1901.41;0.00;0.00;0.62;;;;;11.10;1.00;;;;;;2258282;61;984;-89
2022/04/11 05:42:17;335901.00;1.12;579.63;0.00;0.00;0.62;;;;;11.60;1.00;;;;;;2258149;61;1311;-89
2022/04/11 05:44:44;5614.00;0.02;10.35;0.00;0.00;0.62;;;;;12.40;1.00;;;;;;2259715;40;3586;-87
2022/04/11 05:47:12;12905.00;0.04;22.98;0.00;0.00;0.62;;;;;13.10;1.00;;;;;;2255945;61;1095;-89
2022/04/11 05:49:39;119108.00;0.40;206.54;0.00;0.00;0.62;;;;;14.00;1.00;;;;;;2251998;61;1993;-89
2022/04/11 05:52:07;27412.00;0.09;48.10;0.00;0.00;0.62;;;;;14.70;1.00;;;;;;2252145;61;1220;-89
2022/04/11 05:54:37;3053.00;0.01;5.91;0.00;0.00;0.62;;;;;15.30;1.00;;;;;;2252033;61;1190;-89
2022/04/11 05:57:04;0.00;0.00;0.62;0.00;0.00;0.62;;;;;15.70;1.00;;;;;;2252052;61;1003;-89
2022/04/11 05:59:32;73598.00;0.25;127.98;0.00;0.00;0.62;;;;;16.20;1.00;;;;;;2252074;61;1446;-89
2022/04/11 06:16:59;269169.00;0.90;464.92;0.00;0.00;0.62;;;;;19.00;1.00;;;;;;2257515;61;1138;-87
2022/04/11 06:19:26;81596.00;0.27;141.79;0.00;0.00;0.62;;;;;18.80;1.00;;;;;;2255967;61;1276;-88
2022/04/11 06:21:53;73318.00;0.24;127.49;0.00;0.00;0.62;;;;;18.80;1.00;;;;;;2255999;61;1429;-88
2022/04/11 06:24:20;25050.00;0.08;44.01;0.00;0.00;0.62;;;;;18.80;1.00;;;;;;2256031;61;1063;-87
2022/04/11 06:26:47;66865.00;0.22;116.34;0.00;0.00;0.62;;;;;18.90;1.00;;;;;;2256520;61;1438;-87
2022/04/11 06:29:14;362630.00;1.21;625.57;0.00;0.00;0.62;;;;;19.10;1.00;;;;;;2256613;61;2011;-88
2022/04/11 06:31:41;89561.00;0.30;155.55;0.00;0.00;0.62;;;;;18.80;1.00;;;;;;2256580;61;1195;-88
2022/04/11 06:34:09;2900.00;0.01;5.65;0.00;0.00;0.62;;;;;19.70;1.00;;;;;;2256693;61;1003;-88
2022/04/11 06:36:36;234992.00;0.78;406.14;45725.00;0.15;79.79;;;;;19.30;1.00;;;;;;2256591;61;1064;-87
2022/04/11 06:39:03;0.00;0.00;0.62;0.00;0.00;0.62;;;;;19.60;1.00;;;;;;2256572;61;1312;-87
2022/04/11 06:41:30;91092.00;0.30;158.19;0.00;0.00;0.62;;;;;20.10;1.00;;;;;;2256745;61;1091;-86
2022/04/11 06:43:57;5728.00;0.02;10.55;0.00;0.00;0.62;;;;;21.00;1.00;;;;;;2256608;61;1579;-88
2022/04/11 06:46:24;148392.00;0.49;257.04;0.00;0.00;0.62;;;;;20.60;1.00;;;;;;2256611;61;1058;-87
2022/04/11 06:48:51;0.00;0.00;0.62;0.00;0.00;0.62;;;;;20.80;1.00;;;;;;2256613;61;1999;-87
2022/04/11 06:51:19;302266.00;1.01;521.82;0.00;0.00;0.62;;;;;20.90;1.00;;;;;;2256671;61;926;-88
2022/04/11 06:53:46;47284.00;0.16;82.49;0.00;0.00;0.62;;;;;21.10;1.00;;;;;;2256418;61;1037;-88
2022/04/11 06:56:13;72697.00;0.24;126.42;0.00;0.00;0.62;;;;;21.50;1.00;;;;;;2256624;61;1236;-88
2022/04/11 06:58:39;85838.00;0.29;149.12;0.00;0.00;0.62;;;;;21.40;1.00;;;;;;2256457;61;1521;-86
2022/04/11 07:01:06;203439.00;0.68;351.84;34424.00;0.11;60.24;;;;;20.90;1.00;;;;;;2256673;61;1637;-87
2022/04/11 07:03:33;99450.00;0.33;172.62;0.00;0.00;0.62;;;;;21.30;1.00;;;;;;2256670;61;1092;-87
2022/04/11 07:06:00;586242.00;1.95;1010.47;100002.00;0.33;173.58;;;;;21.40;1.00;;;;;;2256684;61;902;-88
2022/04/11 07:08:28;114597.00;0.38;198.76;0.00;0.00;0.62;;;;;21.20;1.00;;;;;;2256564;61;1998;-89
2022/04/11 07:10:57;255.00;0.00;1.06;0.00;0.00;0.62;;;;;21.20;1.00;;;;;;2256630;61;1080;-90
2022/04/11 07:13:24;311692.00;1.04;538.02;0.00;0.00;0.62;;;;;22.10;1.00;;;;;;2256707;61;1080;-89
2022/04/11 07:15:51;0.00;0.00;0.62;0.00;0.00;0.62;;;;;22.20;1.00;;;;;;2256402;61;1089;-89
2022/04/11 07:18:19;45456.00;0.15;79.33;0.00;0.00;0.62;;;;;22.70;1.00;;;;;;2256517;61;1314;-89
2022/04/11 07:20:46;99039.00;0.33;171.91;0.00;0.00;0.62;;;;;22.90;1.00;;;;;;2256478;61;919;-87
2022/04/11 07:23:13;13730.00;0.05;24.41;0.00;0.00;0.62;;;;;23.40;1.00;;;;;;2256601;61;922;-89
2022/04/11 07:25:41;90022.00;0.30;156.35;0.00;0.00;0.62;;;;;23.20;1.00;;;;;;2256435;61;1104;-87
2022/04/11 07:28:08;5205.00;0.02;9.64;0.00;0.00;0.62;;;;;23.40;1.00;;;;;;2256525;61;1696;-88
2022/04/11 07:30:35;0.00;0.00;0.62;0.00;0.00;0.62;;;;;23.20;1.00;;;;;;2256472;61;2007;-89
2022/04/11 07:33:02;45255.00;0.15;78.98;0.00;0.00;0.62;;;;;23.60;1.00;;;;;;2256404;61;1634;-91
2022/04/11 07:35:29;143087.00;0.48;247.89;31670.00;0.11;55.47;;;;;24.10;1.00;;;;;;2256460;61;976;-88
2022/04/11 07:37:57;49167.00;0.16;85.75;0.00;0.00;0.62;;;;;23.60;1.00;;;;;;2256282;61;1530;-89
2022/04/11 07:40:24;35175.00;0.12;61.54;0.00;0.00;0.62;;;;;23.30;1.00;;;;;;2256369;61;971;-90
2022/04/11 07:42:53;116605.00;0.39;202.23;0.00;0.00;0.62;;;;;23.80;1.00;;;;;;2256451;61;932;-87
2022/04/11 07:45:20;15780.00;0.05;27.96;0.00;0.00;0.62;;;;;24.20;1.00;;;;;;2256412;61;1051;-88
2022/04/11 07:47:47;180483.00;0.60;312.32;0.00;0.00;0.62;;;;;24.50;1.00;;;;;;2256390;61;1396;-88
2022/04/11 07:50:14;14591.00;0.05;25.90;0.00;0.00;0.62;;;;;24.50;1.00;;;;;;2256389;61;1918;-89
2022/04/11 07:52:41;64856.00;0.22;112.87;0.00;0.00;0.62;;;;;24.40;1.00;;;;;;2256475;61;1073;-87
2022/04/11 07:55:10;106483.00;0.35;184.76;0.00;0.00;0.62;;;;;23.20;1.00;;;;;;2256351;61;1016;-88
2022/04/11 07:57:38;148913.00;0.50;257.93;59938.00;0.20;104.37;;;;;23.50;1.00;;;;;;2256405;61;1307;-87
2022/04/11 08:00:08;172445.00;0.57;298.48;18290.00;0.06;32.31;;;;;23.40;1.00;;;;;;2256284;61;1137;-84
2022/04/11 08:02:37;298983.00;1.00;516.17;4839.00;0.02;9.01;;;;;23.40;1.00;;;;;;2256101;61;1695;-87
2022/04/11 08:05:06;228163.00;0.76;394.39;69928.00;0.23;121.64;;;;;22.80;1.00;;;;;;2256058;61;1415;-88
2022/04/11 08:07:33;0.00;0.00;0.62;0.00;0.00;0.62;;;;;22.90;1.00;;;;;;2256431;61;1388;-88
2022/04/11 08:10:00;101553.00;0.34;176.25;0.00;0.00;0.62;;;;;22.90;1.00;;;;;;2256291;61;1993;-86
2022/04/11 08:12:27;7182.00;0.02;13.07;0.00;0.00;0.62;;;;;23.10;1.00;;;;;;2256314;61;1033;-86
2022/04/11 08:14:54;204634.00;0.68;353.90;20748.00;0.07;36.57;;;;;23.00;1.00;;;;;;2256200;61;1012;-86
2022/04/11 08:17:22;185103.00;0.62;320.28;28774.00;0.10;50.46;;;;;21.90;1.00;;;;;;2256336;61;1393;-88
2022/04/11 08:19:49;119675.00;0.40;207.52;5129.00;0.02;9.51;;;;;21.80;1.00;;;;;;2256413;61;1013;-87
2022/04/11 08:22:16;17855.00;0.06;31.56;0.00;0.00;0.62;;;;;21.90;1.00;;;;;;2256325;61;1083;-88
2022/04/11 08:24:43;47678.00;0.16;83.17;0.00;0.00;0.62;;;;;22.30;1.00;;;;;;2256303;61;972;-87
2022/04/11 08:27:10;193361.00;0.64;334.49;0.00;0.00;0.62;;;;;22.40;1.00;;;;;;2256331;61;945;-86
2022/04/11 08:29:37;269028.00;0.90;464.67;0.00;0.00;0.62;;;;;22.30;1.00;;;;;;2256237;61;1924;-87
2022/04/11 08:32:05;19378.00;0.06;34.19;0.00;0.00;0.62;;;;;22.20;1.00;;;;;;2256249;61;1144;-87
2022/04/11 08:34:34;141324.00;0.47;244.85;0.00;0.00;0.62;;;;;20.90;1.00;;;;;;2256227;61;1021;-86
2022/04/11 08:37:01;72779.00;0.24;126.56;0.00;0.00;0.62;;;;;19.30;1.00;;;;;;2256236;61;1490;-88
2022/04/11 08:39:27;234296.00;0.78;404.94;49071.00;0.16;85.58;;;;;19.70;1.00;;;;;;2256336;61;1415;-88
2022/04/11 08:42:01;13904.00;0.05;24.71;0.00;0.00;0.62;;;;;19.70;1.00;;;;;;2256319;61;1002;-87
2022/04/11 08:44:28;79197.00;0.26;137.65;0.00;0.00;0.62;;;;;18.80;1.00;;;;;;2256257;61;1041;-87
2022/04/11 08:47:01;29744.00;0.10;52.14;0.00;0.00;0.62;;;;;18.70;1.00;;;;;;2256346;61;1083;-88
2022/04/11 08:49:32;169776.00;0.57;293.88;0.00;0.00;0.62;;;;;18.80;1.00;;;;;;2256263;61;1916;-88
2022/04/11 08:52:00;59820.00;0.20;104.17;0.00;0.00;0.62;;;;;18.90;1.00;;;;;;2256179;61;954;-87
2022/04/11 08:56:57;73270.00;0.24;127.41;0.00;0.00;0.62;;;;;18.50;1.00;;;;;;2253664;61;1422;-87
2022/04/11 08:59:24;93356.00;0.31;162.10;0.00;0.00;0.62;;;;;18.90;1.00;;;;;;2252108;61;2030;-87
2022/04/11 09:04:20;153293.00;0.51;265.48;0.00;0.00;0.62;;;;;18.20;1.00;;;;;;2257987;61;1398;-88
2022/04/11 09:06:56;28173.00;0.09;49.42;0.00;0.00;0.62;;;;;18.30;1.00;;;;;;2256167;61;997;-87
2022/04/11 09:09:38;106206.00;0.35;184.28;0.00;0.00;0.62;;;;;18.50;1.00;;;;;;2256079;61;2014;-88
2022/04/11 09:12:05;81147.00;0.27;141.02;0.00;0.00;0.62;;;;;18.10;1.00;;;;;;2256066;61;1128;-88
2022/04/11 09:14:35;47684.00;0.16;83.18;0.00;0.00;0.62;;;;;17.30;1.00;;;;;;2255952;61;1451;-87
2022/04/11 09:17:02;49579.00;0.17;86.46;0.00;0.00;0.62;;;;;17.00;1.00;;;;;;2256057;61;1141;-87
2022/04/11 09:19:29;157939.00;0.53;273.49;0.00;0.00;0.62;;;;;17.40;1.00;;;;;;2256083;61;1455;-87
2022/04/11 09:26:59;383531.00;1.28;661.49;0.00;0.00;0.62;;;;;18.00;1.00;;;;;;2257492;61;1234;-88
2022/04/11 09:32:05;543682.00;1.81;937.07;0.00;0.00;0.62;;;;;18.20;1.00;;;;;;1953905;57;3577;-88
2022/04/11 09:34:32;250542.00;0.84;432.88;0.00;0.00;0.62;;;;;18.10;1.00;;;;;;2256077;61;1544;-87
2022/04/11 09:37:05;139080.00;0.46;240.98;0.00;0.00;0.62;;;;;18.10;1.00;;;;;;2256102;61;1026;-88
2022/04/11 09:39:38;235066.00;0.78;406.26;3121.00;0.01;6.03;;;;;18.20;1.00;;;;;;2256022;61;1505;-87
2022/04/11 09:42:07;80633.00;0.27;140.13;0.00;0.00;0.62;;;;;18.50;1.00;;;;;;2255967;61;1657;-87
2022/04/11 09:44:36;246910.00;0.82;426.64;0.00;0.00;0.62;;;;;18.50;1.00;;;;;;2256054;61;1447;-86
2022/04/11 09:47:04;146561.00;0.49;253.88;0.00;0.00;0.62;;;;;18.20;1.00;;;;;;2273211;56;3805;-87
2022/04/11 09:54:31;988664.00;3.30;1712.40;107382.00;0.36;186.31;;;;;18.10;1.00;;;;;;2257994;61;1228;-88
2022/04/11 09:57:00;1262670.00;4.21;2203.95;205740.00;0.69;355.80;;;;;18.40;1.00;;;;;;2256071;61;917;-88
2022/04/11 09:59:29;717759.00;2.39;1238.05;125291.00;0.42;217.21;;;;;18.60;1.00;;;;;;2255844;61;1409;-91
2022/04/11 10:01:58;324421.00;1.08;559.90;18957.00;0.06;33.46;;;;;18.50;1.00;;;;;;2271341;57;3903;-88
2022/04/11 10:04:26;380350.00;1.27;656.03;7654.00;0.03;13.88;;;;;18.20;1.00;;;;;;2256675;61;1625;-88
2022/04/11 10:09:24;990742.00;3.30;1716.08;85409.00;0.28;148.38;;;;;17.90;1.00;;;;;;2258577;61;1985;-87
2022/04/11 10:11:53;699510.00;2.33;1206.39;125996.00;0.42;218.42;;;;;18.30;1.00;;;;;;2303281;41;3611;-86
2022/04/11 10:14:25;977246.00;3.26;1692.21;20380.00;0.07;35.93;;;;;18.70;1.00;;;;;;2256489;61;1769;-89
2022/04/11 10:16:56;1097099.00;3.66;1905.24;92308.00;0.31;160.29;;;;;18.90;1.00;;;;;;2256438;61;1043;-88
2022/04/11 10:19:25;675527.00;2.25;1164.82;19801.00;0.07;34.93;;;;;19.00;1.00;;;;;;2283374;41;3592;-87
2022/04/11 10:24:34;578116.00;1.93;996.45;0.00;0.00;0.62;;;;;18.90;1.00;;;;;;2267767;56;3657;-89
2022/04/11 10:27:22;202446.00;0.67;350.13;20105.00;0.07;35.45;;;;;18.50;1.00;;;;;;2256713;61;1046;-87
2022/04/11 10:29:51;5072.00;0.02;9.41;0.00;0.00;0.62;;;;;18.20;1.00;;;;;;2252667;61;1993;-88
2022/04/11 10:32:21;76193.00;0.25;132.46;0.00;0.00;0.62;;;;;18.30;1.00;;;;;;2252683;61;1302;-87
2022/04/11 10:34:53;143736.00;0.48;249.01;0.00;0.00;0.62;;;;;18.20;1.00;;;;;;2252666;61;1010;-90
2022/04/11 10:37:22;264638.00;0.88;457.12;0.00;0.00;0.62;;;;;18.60;1.00;;;;;;2252720;61;1348;-89
2022/04/11 10:39:50;390315.00;1.30;673.16;42983.00;0.14;75.05;;;;;18.80;1.00;;;;;;2252649;61;1581;-88
2022/04/11 10:42:25;354436.00;1.18;611.49;6625.00;0.02;12.10;;;;;19.00;1.00;;;;;;2252620;61;1591;-87
2022/04/11 10:44:56;390906.00;1.30;674.17;0.00;0.00;0.62;;;;;19.10;1.00;;;;;;2252612;61;1370;-88
2022/04/11 10:47:33;142536.00;0.48;246.94;21889.00;0.07;38.54;;;;;19.20;1.00;;;;;;2252524;61;1504;-85
2022/04/11 10:50:29;0.00;0.00;0.62;0.00;0.00;0.62;;;;;18.70;1.00;;;;;;2252603;61;2013;-87
2022/04/11 10:53:11;7520.00;0.03;13.65;0.00;0.00;0.62;;;;;18.90;1.00;;;;;;2252562;61;1618;-88
2022/04/11 10:56:02;71152.00;0.24;123.75;0.00;0.00;0.62;;;;;18.30;1.00;;;;;;2252583;61;970;-88
2022/04/11 10:58:47;48709.00;0.16;84.95;0.00;0.00;0.62;;;;;17.70;1.00;;;;;;2252521;61;1317;-86
2022/04/11 11:01:16;41835.00;0.14;73.06;0.00;0.00;0.62;;;;;18.50;1.00;;;;;;2252565;61;1077;-88
2022/04/11 11:06:39;97657.00;0.33;169.53;0.00;0.00;0.62;;;;;18.20;1.00;;;;;;2294106;60;1440;-89
2022/04/11 11:11:35;543924.00;1.81;937.49;62993.00;0.21;109.65;;;;;18.20;1.00;;;;;;2293966;60;1373;-85
2022/04/11 11:14:02;61965.00;0.21;107.87;0.00;0.00;0.62;;;;;18.70;1.00;;;;;;2291998;60;1015;-85
2022/04/11 11:17:01;42270.00;0.14;73.82;0.00;0.00;0.62;;;;;19.00;1.00;;;;;;2291965;60;1419;-86
2022/04/11 11:19:28;56303.00;0.19;98.09;0.00;0.00;0.62;;;;;19.00;1.00;;;;;;2291830;60;1434;-86
2022/04/11 11:22:02;21605.00;0.07;38.05;0.00;0.00;0.62;;;;;19.00;1.00;;;;;;2291897;60;1611;-86
2022/04/11 11:24:30;9097.00;0.03;16.38;0.00;0.00;0.62;;;;;19.40;1.00;;;;;;2291886;60;1922;-86
2022/04/11 11:26:59;28002.00;0.09;49.12;0.00;0.00;0.62;;;;;19.50;1.00;;;;;;2291970;60;1109;-87
2022/04/11 11:29:31;141052.00;0.47;244.38;22173.00;0.07;39.03;;;;;19.30;1.00;;;;;;2291844;60;1340;-87
2022/04/11 11:31:59;65768.00;0.22;114.45;0.00;0.00;0.62;;;;;19.00;1.00;;;;;;2291936;60;1114;-87
2022/04/11 11:34:28;72452.00;0.24;126.00;0.00;0.00;0.62;;;;;18.30;1.00;;;;;;2291907;60;1048;-87
2022/04/11 11:37:01;106995.00;0.36;185.64;0.00;0.00;0.62;;;;;17.50;1.00;;;;;;2291835;60;1018;-87
2022/04/11 11:39:29;47924.00;0.16;83.60;0.00;0.00;0.62;;;;;17.10;1.00;;;;;;2291803;60;1440;-87
2022/04/11 11:42:02;59534.00;0.20;103.67;0.00;0.00;0.62;;;;;17.60;1.00;;;;;;2291743;60;944;-85
2022/04/11 11:44:30;21863.00;0.07;38.50;0.00;0.00;0.62;;;;;17.20;1.00;;;;;;2291850;60;2009;-86
2022/04/11 11:46:59;35986.00;0.12;62.94;0.00;0.00;0.62;;;;;17.00;1.00;;;;;;2291932;60;919;-87
2022/04/11 11:49:28;10087.00;0.03;18.10;0.00;0.00;0.62;;;;;17.00;1.00;;;;;;2291827;60;1418;-87
2022/04/11 11:51:55;0.00;0.00;0.62;0.00;0.00;0.62;;;;;17.60;1.00;;;;;;2291907;60;1015;-87
2022/04/11 11:54:38;46053.00;0.15;80.36;0.00;0.00;0.62;;;;;17.70;1.00;;;;;;2291866;60;930;-87
2022/04/11 11:57:14;25937.00;0.09;45.55;0.00;0.00;0.62;;;;;18.00;1.00;;;;;;2291859;60;1415;-86
2022/04/11 11:59:51;0.00;0.00;0.62;0.00;0.00;0.62;;;;;18.20;1.00;;;;;;2291815;60;1061;-85
2022/04/11 12:05:04;5796.00;0.02;10.66;0.00;0.00;0.62;;;;;18.10;1.00;;;;;;2291876;60;1915;-87
2022/04/11 12:07:30;11944.00;0.04;21.32;0.00;0.00;0.62;;;;;18.50;1.00;;;;;;2291736;60;1296;-87
2022/04/11 12:09:59;21521.00;0.07;37.90;0.00;0.00;0.62;;;;;18.70;1.00;;;;;;2291700;60;1612;-85
2022/04/11 12:12:26;62293.00;0.21;108.44;0.00;0.00;0.62;;;;;18.90;1.00;;;;;;2291727;60;1160;-85
2022/04/11 12:15:05;98470.00;0.33;170.93;0.00;0.00;0.62;;;;;19.30;1.00;;;;;;2291706;60;1628;-86
2022/04/11 12:17:33;0.00;0.00;0.62;0.00;0.00;0.62;;;;;19.70;1.00;;;;;;2289348;60;1389;-87
2022/04/11 12:20:08;10004.00;0.03;17.96;0.00;0.00;0.62;;;;;19.70;1.00;;;;;;2289101;60;1021;-88
2022/04/11 12:22:35;139194.00;0.46;241.18;0.00;0.00;0.62;;;;;19.80;1.00;;;;;;2289028;60;1078;-87
2022/04/11 12:25:22;552173.00;1.84;951.71;1982.00;0.01;4.06;;;;;20.10;1.00;;;;;;2288966;60;1998;-87
2022/04/11 12:27:50;617947.00;2.06;1065.22;41692.00;0.14;72.82;;;;;20.00;1.00;;;;;;2289007;60;1347;-86
2022/04/11 12:30:17;443569.00;1.48;764.72;0.00;0.00;0.62;;;;;20.40;1.00;;;;;;2288947;60;2215;-85
2022/04/11 12:37:51;1533276.00;5.11;2705.89;194013.00;0.65;335.62;;;;;20.10;1.00;;;;;;2286194;61;1388;-89
2022/04/11 12:40:19;1476317.00;4.92;2598.64;64674.00;0.22;112.56;;;;;20.20;1.00;;;;;;2284701;61;1018;-89
2022/04/11 12:42:47;1419731.00;4.73;2492.97;231065.00;0.77;399.38;;;;;20.40;1.00;;;;;;2284774;61;1023;-87
2022/04/11 12:45:15;1529849.00;5.10;2699.41;201883.00;0.67;349.16;;;;;20.50;1.00;;;;;;2284750;61;1919;-88
2022/04/11 12:48:02;966458.00;3.22;1673.15;134289.00;0.45;232.72;;;;;20.30;1.00;;;;;;2284762;60;1292;-89
2022/04/11 12:50:29;1097757.00;3.66;1906.41;143949.00;0.48;249.38;;;;;20.20;1.00;;;;;;2295355;55;3759;-87
2022/04/11 12:52:56;1406623.00;4.69;2468.61;186261.00;0.62;322.27;;;;;20.40;1.00;;;;;;2285930;39;3763;-88
2022/04/11 12:55:26;771363.00;2.57;1331.23;29452.00;0.10;51.63;;;;;20.50;1.00;;;;;;2288888;60;1064;-89
2022/04/11 12:58:06;1076782.00;3.59;1868.95;170188.00;0.57;294.59;;;;;20.40;1.00;;;;;;2288777;60;2182;-87
2022/04/11 13:00:35;1014739.00;3.38;1758.59;107044.00;0.36;185.73;;;;;20.30;1.00;;;;;;2288861;60;2211;-87
2022/04/11 13:03:02;1150741.00;3.84;2001.41;142655.00;0.48;247.15;;;;;19.90;1.00;;;;;;2288870;60;1023;-87
2022/04/11 13:05:32;965392.00;3.22;1671.27;112992.00;0.38;195.99;;;;;19.80;1.00;;;;;;2288796;60;1993;-86
2022/04/11 13:08:00;684434.00;2.28;1180.26;63529.00;0.21;110.58;;;;;19.60;1.00;;;;;;2313683;55;3774;-88
2022/04/11 13:10:28;1282983.00;4.28;2241.00;107066.00;0.36;185.77;;;;;19.60;1.00;;;;;;2313642;56;3804;-86
2022/04/11 13:15:28;1401661.00;4.67;2459.41;71155.00;0.24;123.76;;;;;19.40;1.00;;;;;;2290215;60;1337;-86
2022/04/11 13:20:54;200354.00;0.67;346.53;11586.00;0.04;20.70;;;;;19.90;1.00;;;;;;2272113;61;1015;-88
2022/04/11 13:23:21;190065.00;0.63;328.82;0.00;0.00;0.62;;;;;20.70;1.00;;;;;;2271978;61;1369;-87
2022/04/11 13:25:48;248120.00;0.83;428.72;0.00;0.00;0.62;;;;;21.20;1.00;;;;;;2271966;61;1923;-88
2022/04/11 13:28:15;572538.00;1.91;986.82;47224.00;0.16;82.39;;;;;21.50;1.00;;;;;;2271784;61;1380;-89
2022/04/11 13:30:44;1111953.00;3.71;1931.81;116475.00;0.39;202.00;;;;;21.10;1.00;;;;;;2272054;61;995;-88
2022/04/11 13:33:11;694503.00;2.32;1197.71;28375.00;0.09;49.77;;;;;21.00;1.00;;;;;;2271876;61;1152;-87
2022/04/11 13:40:44;49411.00;0.16;86.17;0.00;0.00;0.62;;;;;19.00;1.00;;;;;;2310464;55;3641;-88
2022/04/11 13:48:11;649200.00;2.16;1119.25;6094.00;0.02;11.18;;;;;20.00;1.00;;;;;;2317849;40;3535;-88
2022/04/11 13:50:38;1165286.00;3.88;2027.58;89395.00;0.30;155.26;;;;;20.30;1.00;;;;;;2288768;60;2219;-87
2022/04/11 13:53:05;1002359.00;3.34;1736.65;118510.00;0.40;205.51;;;;;20.20;1.00;;;;;;2288760;60;2003;-88
2022/04/11 13:58:01;933527.00;3.11;1615.08;140102.00;0.47;242.75;;;;;19.80;1.00;;;;;;2292163;55;3655;-87
2022/04/11 14:00:28;1374547.00;4.58;2409.20;185220.00;0.62;320.48;;;;;19.50;1.00;;;;;;2288615;60;1001;-88
2022/04/11 14:02:55;794089.00;2.65;1370.82;86294.00;0.29;149.91;;;;;19.40;1.00;;;;;;2288745;60;931;-87